Check out our new BloomSky Weather System.

Active alerts

Houston, TX
  Details for Houston, TX Dense Fog Advisory


Thunder radar  blitzortung!


Rain radar more information rain snow radar


Visit our other weather sites:

Template documentation
and downloads

And another site



Weather Underground History page Text

Daily Summary for July 14, 2017 Units:  Metric    English   Both
« Previous Day
Next Day »
Daily Weekly Monthly Yearly Custom
  High: Low: Average:
Temperature: 36.1 °C 24.4 °C 30.1 °C
Dew Point: 27.6 °C 22.5 °C 24.8 °C
Humidity: 98 % 48 % 76 %
Wind Speed: 14.5 km/h 0 km/h 2.1 km/h
Wind Gust: 22.5 km/h - -
Wind:- - SSW
Pressure: 1019.5 hPa 1015.8 hPa -
Precipitation: 0 mm    
Historical Graphs
 
 
Tabular Data for July 14, 2017
Time Temperature Dew Point Pressure Wind Wind Speed Wind Gust Humidity Rainfall Rate (Hourly)
00:02 26.7 °C 24.7 °C 1018.2 hPa Calm   1.6 km/h 89 % 0 mm
00:07 26.7 °C 24.7 °C 1018.5 hPa Calm   1.6 km/h 89 % 0 mm
00:12 26.7 °C 24.7 °C 1018.5 hPa Calm   3.2 km/h 89 % 0 mm
00:18 26.6 °C 24.4 °C 1018.5 hPa Calm   3.2 km/h 88 % 0 mm
00:23 26.6 °C 24.6 °C 1018.5 hPa Calm   3.2 km/h 89 % 0 mm
00:28 26.4 °C 24.4 °C 1018.5 hPa Calm   1.6 km/h 89 % 0 mm
00:33 26.4 °C 24.4 °C 1018.5 hPa Calm     89 % 0 mm
00:38 26.3 °C 24.5 °C 1018.5 hPa Calm     90 % 0 mm
00:43 26.4 °C 24.8 °C 1018.5 hPa SSE 1.6 km/h 1.6 km/h 91 % 0 mm
00:48 26.4 °C 24.8 °C 1018.5 hPa SSW 1.6 km/h 3.2 km/h 91 % 0 mm
00:53 26.4 °C 24.6 °C 1018.5 hPa Calm   3.2 km/h 90 % 0 mm
00:58 26.4 °C 24.8 °C 1018.5 hPa South 1.6 km/h 3.2 km/h 91 % 0 mm
00:59 26.4 °C 24.8 °C 1018.5 hPa Calm   3.2 km/h 91 % 0 mm
01:04 26.4 °C 24.8 °C 1018.5 hPa Calm   3.2 km/h 91 % 0 mm
01:09 26.3 °C 24.5 °C 1018.5 hPa South 1.6 km/h 1.6 km/h 90 % 0 mm
01:14 26.3 °C 24.7 °C 1018.5 hPa SSW 3.2 km/h 3.2 km/h 91 % 0 mm
01:19 26.3 °C 24.7 °C 1018.5 hPa SSE 1.6 km/h 3.2 km/h 91 % 0 mm
01:24 26.4 °C 24.8 °C 1018.5 hPa Calm   3.2 km/h 91 % 0 mm
01:29 26.3 °C 24.5 °C 1018.5 hPa Calm   3.2 km/h 90 % 0 mm
01:34 26.2 °C 24.4 °C 1018.5 hPa Calm   3.2 km/h 90 % 0 mm
01:39 26.1 °C 24.3 °C 1018.5 hPa Calm   3.2 km/h 90 % 0 mm
01:44 26.1 °C 24.5 °C 1018.5 hPa Calm     91 % 0 mm
01:49 26.1 °C 24.5 °C 1018.5 hPa Calm     91 % 0 mm
01:54 26 °C 24.4 °C 1018.2 hPa Calm     91 % 0 mm
01:59 26 °C 24.6 °C 1018.2 hPa Calm     92 % 0 mm
02:04 25.9 °C 24.3 °C 1018.2 hPa Calm   1.6 km/h 91 % 0 mm
02:09 25.9 °C 24.5 °C 1018.2 hPa Calm   1.6 km/h 92 % 0 mm
02:14 25.9 °C 24.5 °C 1018.2 hPa Calm   1.6 km/h 92 % 0 mm
02:19 25.8 °C 24.4 °C 1018.2 hPa Calm     92 % 0 mm
02:24 25.8 °C 24.4 °C 1018.2 hPa Calm     92 % 0 mm
02:29 25.7 °C 24.3 °C 1018.2 hPa Calm     92 % 0 mm
02:34 25.6 °C 24.2 °C 1018.2 hPa Calm     92 % 0 mm
02:39 25.6 °C 24.2 °C 1018.2 hPa Calm     92 % 0 mm
02:44 25.5 °C 24.1 °C 1018.2 hPa Calm     92 % 0 mm
02:49 25.4 °C 24.2 °C 1018.2 hPa Calm     93 % 0 mm
02:54 25.4 °C 24.2 °C 1018.2 hPa Calm     93 % 0 mm
02:59 25.4 °C 24.2 °C 1018.2 hPa Calm     93 % 0 mm
03:04 25.3 °C 24.1 °C 1018.2 hPa Calm     93 % 0 mm
03:09 25.3 °C 24.1 °C 1018.2 hPa Calm     93 % 0 mm
03:14 25.3 °C 24.3 °C 1018.2 hPa Calm     94 % 0 mm
03:19 25.2 °C 24.2 °C 1018.2 hPa Calm     94 % 0 mm
03:24 25.2 °C 24.2 °C 1018.2 hPa Calm     94 % 0 mm
03:29 25.2 °C 24.2 °C 1018.2 hPa Calm     94 % 0 mm
03:34 25.1 °C 24.1 °C 1018.2 hPa Calm     94 % 0 mm
03:39 25.1 °C 24.1 °C 1018.2 hPa Calm     94 % 0 mm
03:44 25 °C 24 °C 1018.2 hPa Calm     94 % 0 mm
03:49 24.9 °C 23.9 °C 1018.2 hPa Calm     94 % 0 mm
03:54 25.1 °C 24.2 °C 1018.2 hPa Calm     95 % 0 mm
03:59 25 °C 24.1 °C 1018.2 hPa Calm     95 % 0 mm
04:04 24.9 °C 24 °C 1018.2 hPa Calm     95 % 0 mm
04:09 25 °C 24.1 °C 1018.2 hPa Calm     95 % 0 mm
04:14 24.9 °C 24 °C 1018.2 hPa Calm     95 % 0 mm
04:19 24.8 °C 23.9 °C 1018.2 hPa Calm     95 % 0 mm
04:24 24.7 °C 23.8 °C 1017.8 hPa Calm     95 % 0 mm
04:29 24.7 °C 23.8 °C 1017.8 hPa Calm     95 % 0 mm
04:34 24.6 °C 23.7 °C 1017.8 hPa Calm     95 % 0 mm
04:39 24.7 °C 24 °C 1017.8 hPa Calm     96 % 0 mm
04:44 24.7 °C 24 °C 1017.8 hPa Calm     96 % 0 mm
04:49 24.7 °C 24 °C 1018.2 hPa Calm     96 % 0 mm
04:54 24.7 °C 24 °C 1018.2 hPa Calm     96 % 0 mm
04:59 24.7 °C 24 °C 1018.2 hPa Calm     96 % 0 mm
05:04 24.7 °C 24 °C 1018.2 hPa Calm     96 % 0 mm
05:09 24.8 °C 24.1 °C 1018.2 hPa Calm     96 % 0 mm
05:14 24.7 °C 24 °C 1018.2 hPa Calm     96 % 0 mm
05:19 24.7 °C 24 °C 1018.2 hPa Calm     96 % 0 mm
05:24 24.6 °C 23.9 °C 1018.2 hPa Calm     96 % 0 mm
05:29 24.6 °C 23.9 °C 1018.2 hPa Calm     96 % 0 mm
05:34 24.6 °C 23.9 °C 1018.5 hPa Calm     96 % 0 mm
05:39 24.6 °C 23.9 °C 1018.5 hPa Calm     96 % 0 mm
05:44 24.6 °C 23.9 °C 1018.5 hPa Calm     96 % 0 mm
05:49 24.6 °C 23.9 °C 1018.5 hPa Calm     96 % 0 mm
05:54 24.6 °C 23.9 °C 1018.5 hPa Calm     96 % 0 mm
06:00 24.6 °C 23.9 °C 1018.8 hPa Calm     96 % 0 mm
06:05 24.6 °C 24.1 °C 1018.8 hPa Calm     97 % 0 mm
06:10 24.6 °C 24.1 °C 1018.8 hPa Calm     97 % 0 mm
06:15 24.7 °C 24.2 °C 1018.8 hPa Calm     97 % 0 mm
06:20 24.6 °C 24.1 °C 1018.8 hPa Calm     97 % 0 mm
06:25 24.6 °C 24.1 °C 1018.8 hPa Calm     97 % 0 mm
06:30 24.6 °C 24.1 °C 1018.8 hPa Calm     97 % 0 mm
06:35 24.5 °C 24 °C 1018.8 hPa Calm     97 % 0 mm
06:40 24.5 °C 24 °C 1018.8 hPa Calm     97 % 0 mm
06:45 24.4 °C 23.9 °C 1018.8 hPa Calm     97 % 0 mm
06:50 24.4 °C 23.9 °C 1018.8 hPa Calm     97 % 0 mm
06:55 24.6 °C 24.1 °C 1019.2 hPa Calm     97 % 0 mm
07:00 24.6 °C 24.1 °C 1019.2 hPa Calm     97 % 0 mm
07:05 24.7 °C 24.2 °C 1019.2 hPa Calm     97 % 0 mm
07:10 24.8 °C 24.3 °C 1019.2 hPa Calm     97 % 0 mm
07:15 24.9 °C 24.4 °C 1019.2 hPa Calm     97 % 0 mm
07:20 25.2 °C 24.7 °C 1019.2 hPa Calm     97 % 0 mm
07:25 25.7 °C 25.4 °C 1019.2 hPa Calm     98 % 0 mm
07:30 26.1 °C 25.6 °C 1019.2 hPa Calm     97 % 0 mm
07:35 26.4 °C 25.9 °C 1019.2 hPa Calm     97 % 0 mm
07:40 26.7 °C 26.2 °C 1019.2 hPa Calm     97 % 0 mm
07:45 27.1 °C 26.6 °C 1019.2 hPa Calm     97 % 0 mm
07:50 27.3 °C 26.4 °C 1019.2 hPa Calm     95 % 0 mm
07:55 27.4 °C 26.5 °C 1019.2 hPa Calm     95 % 0 mm
08:00 27.9 °C 26.8 °C 1019.2 hPa Calm     94 % 0 mm
08:05 28.5 °C 27.4 °C 1019.2 hPa Calm     94 % 0 mm
08:10 28.9 °C 27.3 °C 1019.2 hPa Calm     91 % 0 mm
08:15 29.4 °C 27.6 °C 1019.2 hPa Calm     90 % 0 mm
08:20 29.7 °C 27.1 °C 1019.2 hPa Calm     86 % 0 mm
08:21 29.7 °C 26.9 °C 1019.2 hPa Calm     85 % 0 mm
08:26 29.9 °C 26.9 °C 1019.2 hPa Calm   1.6 km/h 84 % 0 mm
08:31 30.1 °C 26.5 °C 1019.2 hPa Calm   1.6 km/h 81 % 0 mm
08:36 30.3 °C 26.7 °C 1019.2 hPa Calm   1.6 km/h 81 % 0 mm
08:41 30.6 °C 26.5 °C 1019.2 hPa SE 1.6 km/h 1.6 km/h 79 % 0 mm
08:46 30.6 °C 26.1 °C 1019.5 hPa Calm   1.6 km/h 77 % 0 mm
08:51 30.6 °C 26.1 °C 1019.5 hPa Calm   1.6 km/h 77 % 0 mm
08:56 30.7 °C 26.6 °C 1019.5 hPa Calm   1.6 km/h 79 % 0 mm
09:01 30.5 °C 26 °C 1019.5 hPa WNW 3.2 km/h 4.8 km/h 77 % 0 mm
09:07 30.4 °C 26.1 °C 1019.5 hPa Calm   4.8 km/h 78 % 0 mm
09:12 30.7 °C 26.2 °C 1019.5 hPa Calm   4.8 km/h 77 % 0 mm
09:17 30.9 °C 26.2 °C 1019.5 hPa Calm   3.2 km/h 76 % 0 mm
09:22 31 °C 26 °C 1019.5 hPa Calm   3.2 km/h 75 % 0 mm
09:27 31.1 °C 26.6 °C 1019.5 hPa SSW 3.2 km/h 6.4 km/h 77 % 0 mm
09:32 31.1 °C 26.1 °C 1019.5 hPa WNW 3.2 km/h 6.4 km/h 75 % 0 mm
09:37 30.8 °C 25.9 °C 1019.2 hPa NW 1.6 km/h 6.4 km/h 75 % 0 mm
09:42 30.6 °C 26.1 °C 1019.2 hPa Calm   6.4 km/h 77 % 0 mm
09:47 31.1 °C 26.8 °C 1019.2 hPa West 1.6 km/h 6.4 km/h 78 % 0 mm
09:52 31.5 °C 26.5 °C 1019.2 hPa Calm   6.4 km/h 75 % 0 mm
09:57 31.6 °C 25.7 °C 1019.2 hPa Calm   4.8 km/h 71 % 0 mm
10:02 31.6 °C 26.4 °C 1019.2 hPa Calm   8 km/h 74 % 0 mm
10:07 31.8 °C 25.9 °C 1019.2 hPa Calm   8 km/h 71 % 0 mm
10:12 31.8 °C 25.9 °C 1019.2 hPa Calm   8 km/h 71 % 0 mm
10:17 32.3 °C 26.4 °C 1019.2 hPa Calm   4.8 km/h 71 % 0 mm
10:22 32.6 °C 25.7 °C 1019.2 hPa NW 3.2 km/h 4.8 km/h 67 % 0 mm
10:27 32.2 °C 24.8 °C 1019.2 hPa West 3.2 km/h 6.4 km/h 65 % 0 mm
10:32 31.8 °C 25.2 °C 1019.2 hPa SW 1.6 km/h 8 km/h 68 % 0 mm
10:37 31.4 °C 24.5 °C 1019.2 hPa Calm   8 km/h 67 % 0 mm
10:42 31.8 °C 25.2 °C 1019.2 hPa SSW 1.6 km/h 8 km/h 68 % 0 mm
10:47 32.1 °C 25.2 °C 1019.2 hPa NNW 6.4 km/h 6.4 km/h 67 % 0 mm
10:52 32.1 °C 25.4 °C 1019.2 hPa Calm   9.7 km/h 68 % 0 mm
10:57 32.3 °C 25.6 °C 1019.2 hPa NW 3.2 km/h 9.7 km/h 68 % 0 mm
11:02 32.3 °C 24.6 °C 1019.2 hPa NNW 4.8 km/h 9.7 km/h 64 % 0 mm
11:07 32.4 °C 25 °C 1019.2 hPa Calm   9.7 km/h 65 % 0 mm
11:12 32.6 °C 24.9 °C 1019.2 hPa North 3.2 km/h 9.7 km/h 64 % 0 mm
11:17 32.8 °C 25.1 °C 1019.2 hPa NW 3.2 km/h 9.7 km/h 64 % 0 mm
11:22 32.9 °C 25.4 °C 1018.8 hPa NW 4.8 km/h 6.4 km/h 65 % 0 mm
11:27 32.6 °C 24.9 °C 1018.8 hPa NW 3.2 km/h 11.3 km/h 64 % 0 mm
11:32 32.3 °C 25.6 °C 1018.8 hPa SSE 3.2 km/h 11.3 km/h 68 % 0 mm
11:37 32.7 °C 26 °C 1018.8 hPa Calm   11.3 km/h 68 % 0 mm
11:42 32.9 °C 24.9 °C 1018.8 hPa NW 1.6 km/h 8 km/h 63 % 0 mm
11:47 32.6 °C 24.6 °C 1018.8 hPa Calm   8 km/h 63 % 0 mm
11:52 32.7 °C 25.5 °C 1018.8 hPa Calm   8 km/h 66 % 0 mm
11:57 32.9 °C 25.2 °C 1018.8 hPa Calm   6.4 km/h 64 % 0 mm
12:02 32.6 °C 24.1 °C 1018.8 hPa WNW 4.8 km/h 8 km/h 61 % 0 mm
12:07 32.5 °C 24 °C 1018.8 hPa WNW 8 km/h 8 km/h 61 % 0 mm
12:12 32.8 °C 25.6 °C 1018.8 hPa NNW 4.8 km/h 8 km/h 66 % 0 mm
12:17 33.2 °C 24.7 °C 1018.8 hPa WSW 1.6 km/h 8 km/h 61 % 0 mm
12:22 33.6 °C 25 °C 1018.8 hPa Calm   8 km/h 61 % 0 mm
12:27 33.7 °C 24.6 °C 1018.8 hPa NW 4.8 km/h 8 km/h 59 % 0 mm
12:32 34.1 °C 25.8 °C 1018.5 hPa SSE 1.6 km/h 8 km/h 62 % 0 mm
12:37 34.7 °C 26.1 °C 1018.5 hPa ESE 3.2 km/h 9.7 km/h 61 % 0 mm
12:42 34.8 °C 25.3 °C 1018.5 hPa NNW 1.6 km/h 9.7 km/h 58 % 0 mm
12:47 34.3 °C 24.8 °C 1018.8 hPa WSW 1.6 km/h 9.7 km/h 58 % 0 mm
12:52 33.6 °C 24.5 °C 1018.5 hPa Calm   9.7 km/h 59 % 0 mm
12:57 33.6 °C 25 °C 1018.5 hPa NNW 6.4 km/h 11.3 km/h 61 % 0 mm
13:02 33.8 °C 25.5 °C 1018.5 hPa NW 4.8 km/h 11.3 km/h 62 % 0 mm
13:07 33.7 °C 25.1 °C 1018.5 hPa WNW 1.6 km/h 11.3 km/h 61 % 0 mm
13:12 33.9 °C 24.8 °C 1018.2 hPa NNW 6.4 km/h 11.3 km/h 59 % 0 mm
13:17 34.3 °C 25.1 °C 1018.2 hPa NW 4.8 km/h 9.7 km/h 59 % 0 mm
13:22 34.4 °C 25.5 °C 1018.2 hPa NW 6.4 km/h 9.7 km/h 60 % 0 mm
13:27 34.3 °C 25.1 °C 1018.2 hPa NNW 4.8 km/h 9.7 km/h 59 % 0 mm
13:32 34.3 °C 24.8 °C 1018.2 hPa NNE 8 km/h 9.7 km/h 58 % 0 mm
13:37 34.2 °C 25 °C 1018.2 hPa North 1.6 km/h 11.3 km/h 59 % 0 mm
13:42 34.5 °C 25.3 °C 1018.2 hPa NNW 1.6 km/h 11.3 km/h 59 % 0 mm
13:47 34.9 °C 24.8 °C 1017.8 hPa East 1.6 km/h 11.3 km/h 56 % 0 mm
13:52 35.1 °C 25 °C 1017.8 hPa NNE 8 km/h 8 km/h 56 % 0 mm
13:57 34.8 °C 25 °C 1017.8 hPa NNW 3.2 km/h 11.3 km/h 57 % 0 mm
14:02 35.1 °C 25 °C 1017.8 hPa WNW 3.2 km/h 11.3 km/h 56 % 0 mm
14:07 34.7 °C 24.6 °C 1017.8 hPa West 1.6 km/h 11.3 km/h 56 % 0 mm
14:12 34.7 °C 24.6 °C 1017.8 hPa NW 6.4 km/h 11.3 km/h 56 % 0 mm
14:17 34.8 °C 25.3 °C 1017.8 hPa Calm   11.3 km/h 58 % 0 mm
14:22 35.1 °C 24.1 °C 1017.8 hPa WNW 1.6 km/h 11.3 km/h 53 % 0 mm
14:27 35.5 °C 24.4 °C 1017.8 hPa NW 1.6 km/h 11.3 km/h 53 % 0 mm
14:32 35.3 °C 23.9 °C 1017.5 hPa Calm   8 km/h 52 % 0 mm
14:37 34.8 °C 23.5 °C 1017.5 hPa NNW 1.6 km/h 8 km/h 52 % 0 mm
14:42 34.8 °C 24.1 °C 1017.5 hPa SE 4.8 km/h 8 km/h 54 % 0 mm
14:47 34.8 °C 25 °C 1017.5 hPa NE 1.6 km/h 8 km/h 57 % 0 mm
14:52 35.1 °C 23.8 °C 1017.2 hPa ENE 6.4 km/h 8 km/h 52 % 0 mm
14:57 34.9 °C 23.9 °C 1017.2 hPa East 3.2 km/h 11.3 km/h 53 % 0 mm
15:02 35.2 °C 23.5 °C 1017.2 hPa East 6.4 km/h 11.3 km/h 51 % 0 mm
15:07 35.2 °C 24.5 °C 1017.2 hPa SE 8 km/h 11.3 km/h 54 % 0 mm
15:12 35.1 °C 24.1 °C 1017.2 hPa ENE 3.2 km/h 8 km/h 53 % 0 mm
15:17 34.9 °C 24.2 °C 1017.2 hPa NW 3.2 km/h 8 km/h 54 % 0 mm
15:22 34.7 °C 24.9 °C 1017.2 hPa Calm   8 km/h 57 % 0 mm
15:27 34.6 °C 24.5 °C 1016.8 hPa North 4.8 km/h 14.5 km/h 56 % 0 mm
15:32 34.6 °C 24.2 °C 1016.8 hPa WNW 6.4 km/h 14.5 km/h 55 % 0 mm
15:37 34.7 °C 24.3 °C 1016.8 hPa NW 4.8 km/h 14.5 km/h 55 % 0 mm
15:42 34.8 °C 23.5 °C 1016.8 hPa WNW 1.6 km/h 11.3 km/h 52 % 0 mm
15:47 35 °C 23.7 °C 1016.5 hPa ESE 4.8 km/h 11.3 km/h 52 % 0 mm
15:52 35.3 °C 23.9 °C 1016.8 hPa Calm   11.3 km/h 52 % 0 mm
15:57 35.7 °C 24 °C 1016.8 hPa East 3.2 km/h 11.3 km/h 51 % 0 mm
16:02 35.7 °C 24.9 °C 1016.8 hPa ESE 4.8 km/h 11.3 km/h 54 % 0 mm
16:07 35.7 °C 24.6 °C 1016.8 hPa NNE 1.6 km/h 9.7 km/h 53 % 0 mm
16:12 35.7 °C 24.3 °C 1016.8 hPa East 4.8 km/h 9.7 km/h 52 % 0 mm
16:17 35.8 °C 25.3 °C 1016.5 hPa Calm   9.7 km/h 55 % 0 mm
16:22 35.8 °C 23.8 °C 1016.5 hPa WNW 4.8 km/h 8 km/h 50 % 0 mm
16:27 35.7 °C 24.9 °C 1016.5 hPa Calm   8 km/h 54 % 0 mm
16:32 36.1 °C 25 °C 1016.5 hPa Calm   8 km/h 53 % 0 mm
16:37 36.1 °C 24.7 °C 1016.5 hPa East 9.7 km/h 9.7 km/h 52 % 0 mm
16:42 35.9 °C 24.2 °C 1016.5 hPa Calm   11.3 km/h 51 % 0 mm
16:47 35.4 °C 24 °C 1016.5 hPa NNW 9.7 km/h 11.3 km/h 52 % 0 mm
16:52 35.4 °C 24 °C 1016.5 hPa NW 3.2 km/h 11.3 km/h 52 % 0 mm
16:53 35.4 °C 24.4 °C 1016.1 hPa Calm   11.3 km/h 53 % 0 mm
16:58 35.6 °C 23.9 °C 1016.1 hPa NNW 3.2 km/h 9.7 km/h 51 % 0 mm
17:04 35.6 °C 23.9 °C 1016.1 hPa NE 1.6 km/h 9.7 km/h 51 % 0 mm
17:09 35.8 °C 24.1 °C 1016.1 hPa East 3.2 km/h 6.4 km/h 51 % 0 mm
17:13 35.8 °C 23.8 °C 1016.1 hPa NNW 4.8 km/h 6.4 km/h 50 % 0 mm
17:18 35.8 °C 24.1 °C 1016.1 hPa WNW 3.2 km/h 9.7 km/h 51 % 0 mm
17:23 35.8 °C 24.1 °C 1016.1 hPa ENE 6.4 km/h 9.7 km/h 51 % 0 mm
17:28 35.5 °C 23.5 °C 1016.1 hPa NNE 1.6 km/h 9.7 km/h 50 % 0 mm
17:33 35.6 °C 23.9 °C 1016.1 hPa NNW 1.6 km/h 9.7 km/h 51 % 0 mm
17:38 35.4 °C 23.4 °C 1016.1 hPa SSE 4.8 km/h 9.7 km/h 50 % 0 mm
17:43 35.4 °C 23.7 °C 1016.1 hPa NNW 3.2 km/h 9.7 km/h 51 % 0 mm
17:48 35.3 °C 23.3 °C 1016.1 hPa Calm   9.7 km/h 50 % 0 mm
17:54 35.1 °C 23.1 °C 1015.8 hPa East 3.2 km/h 9.7 km/h 50 % 0 mm
17:58 35.2 °C 24.2 °C 1015.8 hPa Calm   8 km/h 53 % 0 mm
18:03 35.3 °C 23.6 °C 1015.8 hPa ESE 6.4 km/h 8 km/h 51 % 0 mm
18:09 35.2 °C 23.2 °C 1015.8 hPa ESE 1.6 km/h 9.7 km/h 50 % 0 mm
18:14 35.2 °C 22.5 °C 1015.8 hPa ESE 4.8 km/h 9.7 km/h 48 % 0 mm
18:19 35.1 °C 23.1 °C 1015.8 hPa SSW 3.2 km/h 12.9 km/h 50 % 0 mm
18:24 34.7 °C 25.8 °C 1015.8 hPa ESE 8 km/h 19.3 km/h 60 % 0 mm
18:29 34 °C 26.2 °C 1015.8 hPa ESE 3.2 km/h 22.5 km/h 64 % 0 mm
18:34 33.7 °C 26.2 °C 1015.8 hPa SSE 11.3 km/h 22.5 km/h 65 % 0 mm
18:39 33.6 °C 26.1 °C 1015.8 hPa East 9.7 km/h 22.5 km/h 65 % 0 mm
18:44 33.1 °C 25.9 °C 1016.1 hPa SE 11.3 km/h 16.1 km/h 66 % 0 mm
18:49 32.8 °C 26.1 °C 1016.1 hPa East 8 km/h 16.1 km/h 68 % 0 mm
18:54 32.8 °C 26.1 °C 1015.8 hPa ENE 3.2 km/h 16.1 km/h 68 % 0 mm
18:59 32.7 °C 26 °C 1016.1 hPa SE 6.4 km/h 16.1 km/h 68 % 0 mm
19:04 32.5 °C 25.8 °C 1016.1 hPa SSE 11.3 km/h 16.1 km/h 68 % 0 mm
19:09 32.3 °C 25.6 °C 1016.1 hPa SE 4.8 km/h 17.7 km/h 68 % 0 mm
19:14 32.3 °C 25.6 °C 1016.1 hPa South 9.7 km/h 17.7 km/h 68 % 0 mm
19:19 32.3 °C 25.6 °C 1016.1 hPa ESE 3.2 km/h 17.7 km/h 68 % 0 mm
19:24 32.3 °C 25.6 °C 1016.1 hPa ESE 4.8 km/h 16.1 km/h 68 % 0 mm
19:29 32.3 °C 25.6 °C 1016.1 hPa East 6.4 km/h 16.1 km/h 68 % 0 mm
19:34 32.1 °C 25.7 °C 1015.8 hPa SE 3.2 km/h 14.5 km/h 69 % 0 mm
19:39 31.9 °C 25.5 °C 1015.8 hPa East 8 km/h 16.1 km/h 69 % 0 mm
19:44 31.8 °C 25.4 °C 1015.8 hPa ESE 4.8 km/h 16.1 km/h 69 % 0 mm
19:49 31.7 °C 25.3 °C 1015.8 hPa SE 4.8 km/h 16.1 km/h 69 % 0 mm
19:54 31.6 °C 25.2 °C 1015.8 hPa ESE 4.8 km/h 12.9 km/h 69 % 0 mm
19:59 31.6 °C 25.5 °C 1016.1 hPa SSE 3.2 km/h 12.9 km/h 70 % 0 mm
20:04 31.6 °C 25.5 °C 1016.1 hPa SSE 9.7 km/h 12.9 km/h 70 % 0 mm
20:09 31.4 °C 24.8 °C 1016.1 hPa South 4.8 km/h 14.5 km/h 68 % 0 mm
20:14 31.2 °C 24.6 °C 1016.1 hPa SE 6.4 km/h 14.5 km/h 68 % 0 mm
20:19 30.9 °C 24.5 °C 1016.1 hPa SSW 3.2 km/h 14.5 km/h 69 % 0 mm
20:24 30.7 °C 24.6 °C 1016.1 hPa ESE 14.5 km/h 14.5 km/h 70 % 0 mm
20:29 30.5 °C 24.4 °C 1016.1 hPa SSE 4.8 km/h 14.5 km/h 70 % 0 mm
20:34 30.4 °C 24.5 °C 1016.5 hPa SSE 6.4 km/h 14.5 km/h 71 % 0 mm
20:39 30.3 °C 24.4 °C 1016.1 hPa South 8 km/h 14.5 km/h 71 % 0 mm
20:44 30.2 °C 24.6 °C 1016.1 hPa SE 8 km/h 12.9 km/h 72 % 0 mm
20:49 30.1 °C 24.5 °C 1016.1 hPa SSW 3.2 km/h 12.9 km/h 72 % 0 mm
20:54 30.1 °C 24.5 °C 1016.1 hPa South 4.8 km/h 11.3 km/h 72 % 0 mm
20:59 29.9 °C 24.5 °C 1016.1 hPa SE 4.8 km/h 11.3 km/h 73 % 0 mm
21:04 29.9 °C 24.5 °C 1016.1 hPa SE 4.8 km/h 11.3 km/h 73 % 0 mm
21:09 29.9 °C 24.5 °C 1016.5 hPa SSE 6.4 km/h 11.3 km/h 73 % 0 mm
21:14 29.8 °C 24.7 °C 1016.5 hPa SE 3.2 km/h 9.7 km/h 74 % 0 mm
21:19 29.9 °C 24.8 °C 1016.1 hPa SSE 6.4 km/h 9.7 km/h 74 % 0 mm
21:24 29.8 °C 24.7 °C 1016.5 hPa South 6.4 km/h 9.7 km/h 74 % 0 mm
21:29 29.8 °C 24.7 °C 1016.5 hPa SSE 1.6 km/h 9.7 km/h 74 % 0 mm
21:34 29.7 °C 24.8 °C 1016.5 hPa ESE 4.8 km/h 8 km/h 75 % 0 mm
21:39 29.6 °C 24.9 °C 1016.5 hPa South 1.6 km/h 8 km/h 76 % 0 mm
21:44 29.5 °C 24.8 °C 1016.8 hPa SE 3.2 km/h 6.4 km/h 76 % 0 mm
21:49 29.4 °C 24.7 °C 1016.8 hPa South 3.2 km/h 6.4 km/h 76 % 0 mm
21:54 29.3 °C 24.8 °C 1017.2 hPa Calm   6.4 km/h 77 % 0 mm
22:00 29.1 °C 24.9 °C 1017.2 hPa Calm   4.8 km/h 78 % 0 mm
22:05 29.1 °C 24.9 °C 1017.2 hPa SSW 1.6 km/h 3.2 km/h 78 % 0 mm
22:10 29.1 °C 25.1 °C 1017.2 hPa ESE 1.6 km/h 4.8 km/h 79 % 0 mm
22:15 29.1 °C 25.1 °C 1017.2 hPa SSW 3.2 km/h 4.8 km/h 79 % 0 mm
22:20 29.1 °C 25.1 °C 1017.2 hPa SSW 3.2 km/h 4.8 km/h 79 % 0 mm
22:25 29 °C 25 °C 1017.2 hPa Calm   4.8 km/h 79 % 0 mm
22:30 28.9 °C 25.1 °C 1017.5 hPa South 3.2 km/h 4.8 km/h 80 % 0 mm
22:35 28.9 °C 25.1 °C 1017.5 hPa Calm   4.8 km/h 80 % 0 mm
22:40 28.8 °C 25.2 °C 1017.5 hPa SSW 1.6 km/h 4.8 km/h 81 % 0 mm
22:45 28.7 °C 25.1 °C 1017.5 hPa South 1.6 km/h 4.8 km/h 81 % 0 mm
22:50 28.6 °C 25.2 °C 1017.5 hPa South 1.6 km/h 4.8 km/h 82 % 0 mm
22:55 28.6 °C 25.2 °C 1017.8 hPa Calm   3.2 km/h 82 % 0 mm
23:00 28.5 °C 25.1 °C 1017.8 hPa Calm   3.2 km/h 82 % 0 mm
23:05 28.5 °C 25.3 °C 1017.5 hPa South 3.2 km/h 4.8 km/h 83 % 0 mm
23:06 28.5 °C 25.3 °C 1017.5 hPa Calm   4.8 km/h 83 % 0 mm
23:11 28.4 °C 25.2 °C 1017.5 hPa Calm   4.8 km/h 83 % 0 mm
23:16 28.3 °C 25.1 °C 1017.8 hPa Calm   4.8 km/h 83 % 0 mm
23:21 28.3 °C 25.3 °C 1017.8 hPa Calm   4.8 km/h 84 % 0 mm
23:26 28.3 °C 25.3 °C 1017.8 hPa Calm   3.2 km/h 84 % 0 mm
23:31 28.2 °C 25.2 °C 1017.8 hPa ESE 1.6 km/h 3.2 km/h 84 % 0 mm
23:37 28.2 °C 25.2 °C 1017.8 hPa Calm   3.2 km/h 84 % 0 mm
23:42 28.3 °C 25.3 °C 1017.8 hPa Calm   3.2 km/h 84 % 0 mm
23:47 28.2 °C 25.2 °C 1017.8 hPa Calm   3.2 km/h 84 % 0 mm
23:52 28.2 °C 25.2 °C 1017.8 hPa Calm   3.2 km/h 84 % 0 mm
23:53 28.1 °C 25.1 °C 1017.8 hPa Calm   3.2 km/h 84 % 0 mm
23:58 28.1 °C 25.3 °C 1017.8 hPa Calm   3.2 km/h 85 % 0 mm
Spring, Texas: Villages of Bridgestone
Compliments of Weather Underground - 2.75 mb

Script developed by  Jim McMurry - jmcmurry@mwt.net Adapted for the template by  Wim van der Kuil - Leuven-Template.eu

You find our weather info also at:

UK Metoffice

WeatherCloud

Weather Underground

Mid-South Weather Network

AWEKAS

Citizen Weather Observer Program (CWOP)

HAMweather, WeatherForYou, PWS Weather

Equipment we use:

Weather-station
Davis Vantage Vue

Weather-program
Meteohub

Weather-server
Debian 7.9 x86 (Guest)

Provider
DreamHost

Davis Vantage Vue

Meteohub

Debian 7.9 x86 (Guest)

DreamHost